createdAt,value
2022-10-31T00:00:52.088Z,11.81
2022-10-31T00:03:20.372Z,11.81
2022-10-31T00:05:50.581Z,11.79
2022-10-31T00:08:20.762Z,11.83
2022-10-31T00:10:54.952Z,11.82
2022-10-31T00:15:55.830Z,11.78
2022-10-31T00:18:23.794Z,11.77
2022-10-31T00:21:01.062Z,11.77
2022-10-31T00:23:30.711Z,11.79
2022-10-31T00:26:02.911Z,11.58
2022-10-31T00:28:33.198Z,11.67
2022-10-31T00:31:02.188Z,11.70
2022-10-31T00:33:30.493Z,11.75
2022-10-31T00:35:58.832Z,11.72
2022-10-31T00:38:26.808Z,11.77
2022-10-31T00:40:56.299Z,11.78
2022-10-31T00:43:24.388Z,11.68
2022-10-31T00:45:52.628Z,11.71
2022-10-31T00:48:20.882Z,11.61
2022-10-31T00:50:50.385Z,11.61
2022-10-31T00:53:18.447Z,11.48
2022-10-31T00:55:46.480Z,11.33
2022-10-31T00:58:17.137Z,11.41
2022-10-31T01:00:48.153Z,11.50
2022-10-31T01:03:19.061Z,11.37
2022-10-31T01:05:46.956Z,11.41
2022-10-31T01:08:15.000Z,11.45
2022-10-31T01:10:44.974Z,11.51
2022-10-31T01:13:13.078Z,11.47
2022-10-31T01:15:42.715Z,11.48
2022-10-31T01:18:10.953Z,11.43
2022-10-31T01:20:38.953Z,11.54
2022-10-31T01:23:06.987Z,11.58
2022-10-31T01:25:34.919Z,11.57
2022-10-31T01:28:03.064Z,11.54
2022-10-31T01:30:31.061Z,11.53
2022-10-31T01:33:00.794Z,11.58
2022-10-31T01:35:28.965Z,11.63
2022-10-31T01:37:56.986Z,11.55
2022-10-31T01:40:25.219Z,11.55
2022-10-31T01:42:53.364Z,11.53
2022-10-31T01:45:21.378Z,11.54
2022-10-31T01:47:50.685Z,11.55
2022-10-31T01:50:30.640Z,11.48
2022-10-31T01:52:59.860Z,11.45
2022-10-31T01:55:32.358Z,11.33
2022-10-31T01:58:06.158Z,11.28
2022-10-31T02:01:08.419Z,11.38
2022-10-31T02:03:43.726Z,11.23
2022-10-31T02:06:24.901Z,11.30
2022-10-31T02:08:53.651Z,11.31
2022-10-31T02:11:22.914Z,11.24
2022-10-31T02:13:51.061Z,11.27
2022-10-31T02:16:19.939Z,11.24
2022-10-31T02:18:48.389Z,11.31
2022-10-31T02:21:24.582Z,11.24
2022-10-31T02:24:31.575Z,11.30
2022-10-31T02:27:30.669Z,11.36
2022-10-31T02:30:07.342Z,11.34
2022-10-31T02:32:45.509Z,11.41
2022-10-31T02:35:22.865Z,11.31
2022-10-31T02:37:58.553Z,11.33
2022-10-31T02:40:29.742Z,11.37
2022-10-31T02:45:52.695Z,11.27
2022-10-31T02:48:29.121Z,11.33
2022-10-31T02:50:59.148Z,11.34
2022-10-31T02:53:27.672Z,11.36
2022-10-31T02:56:06.300Z,11.37
2022-10-31T02:58:37.592Z,11.37
2022-10-31T03:01:37.769Z,11.34
2022-10-31T03:04:28.320Z,11.37
2022-10-31T03:07:03.278Z,11.33
2022-10-31T03:09:38.028Z,11.28
2022-10-31T03:12:10.182Z,11.34
2022-10-31T03:14:44.143Z,11.20
2022-10-31T03:17:18.151Z,11.26
2022-10-31T03:19:51.801Z,11.30
2022-10-31T03:22:23.589Z,11.33
2022-10-31T03:24:54.256Z,11.33
2022-10-31T03:27:27.833Z,11.20
2022-10-31T03:29:58.870Z,11.23
2022-10-31T03:32:30.000Z,11.16
2022-10-31T03:35:03.692Z,11.17
2022-10-31T03:37:35.145Z,11.10
2022-10-31T03:40:07.209Z,11.07
2022-10-31T03:42:41.277Z,11.06
2022-10-31T03:45:14.088Z,10.98
2022-10-31T03:47:45.780Z,10.93
2022-10-31T03:50:17.199Z,10.98
2022-10-31T03:52:52.307Z,10.99
2022-10-31T03:55:25.705Z,11.06
2022-10-31T03:58:00.531Z,11.06
2022-10-31T04:00:29.654Z,11.06
2022-10-31T04:03:03.982Z,11.02
2022-10-31T04:05:36.608Z,10.95
2022-10-31T04:08:08.164Z,10.92
2022-10-31T04:10:39.268Z,10.85
2022-10-31T04:13:10.273Z,10.83
2022-10-31T04:15:47.885Z,10.88
2022-10-31T04:18:18.224Z,10.85
2022-10-31T04:20:51.025Z,10.92
2022-10-31T04:23:22.655Z,10.95
2022-10-31T04:25:51.860Z,10.95
2022-10-31T04:28:20.877Z,11.00
2022-10-31T04:30:49.128Z,11.07
2022-10-31T04:33:18.065Z,11.07
2022-10-31T04:35:49.980Z,11.12
2022-10-31T04:38:18.240Z,11.10
2022-10-31T04:40:47.327Z,11.12
2022-10-31T04:43:47.589Z,11.10
2022-10-31T04:46:15.616Z,11.10
2022-10-31T04:48:43.843Z,11.07
2022-10-31T04:51:14.459Z,11.05
2022-10-31T04:53:42.489Z,11.05
2022-10-31T04:56:28.876Z,11.09
2022-10-31T04:59:07.257Z,11.16
2022-10-31T05:01:47.422Z,11.09
2022-10-31T05:04:15.607Z,11.02
2022-10-31T05:06:44.997Z,11.10
2022-10-31T05:09:12.989Z,11.07
2022-10-31T05:11:41.138Z,11.06
2022-10-31T05:14:22.827Z,11.06
2022-10-31T05:17:26.571Z,11.06
2022-10-31T05:20:32.740Z,11.03
2022-10-31T05:23:11.580Z,10.92
2022-10-31T05:25:42.525Z,10.91
2022-10-31T05:28:10.703Z,10.82
2022-10-31T05:30:39.237Z,10.89
2022-10-31T05:33:11.812Z,10.93
2022-10-31T05:35:58.437Z,10.93
2022-10-31T05:38:48.360Z,10.98
2022-10-31T05:41:25.937Z,10.95
2022-10-31T05:44:02.400Z,10.91
2022-10-31T05:49:24.933Z,10.99
2022-10-31T05:51:59.138Z,10.88
2022-10-31T05:54:37.494Z,10.95
2022-10-31T05:57:05.689Z,10.96
2022-10-31T05:59:33.876Z,11.02
2022-10-31T06:02:27.867Z,10.96
2022-10-31T06:05:16.029Z,10.96
2022-10-31T06:07:44.599Z,10.88
2022-10-31T06:10:14.464Z,10.98
2022-10-31T06:12:43.145Z,10.91
2022-10-31T06:15:37.247Z,10.89
2022-10-31T06:18:08.209Z,10.96
2022-10-31T06:20:41.317Z,10.91
2022-10-31T06:23:09.286Z,10.89
2022-10-31T06:25:38.980Z,10.92
2022-10-31T06:28:07.900Z,10.79
2022-10-31T06:30:47.997Z,10.91
2022-10-31T06:33:16.981Z,10.88
2022-10-31T06:35:55.698Z,10.92
2022-10-31T06:38:24.311Z,10.86
2022-10-31T06:40:54.909Z,10.89
2022-10-31T06:43:25.118Z,10.93
2022-10-31T06:46:07.751Z,10.88
2022-10-31T06:48:42.678Z,10.86
2022-10-31T06:51:36.875Z,10.95
2022-10-31T06:54:05.888Z,10.85
2022-10-31T06:56:35.824Z,10.91
2022-10-31T06:59:05.134Z,10.75
2022-10-31T07:02:11.721Z,10.85
2022-10-31T07:04:41.475Z,10.85
2022-10-31T07:07:10.223Z,10.96
2022-10-31T07:09:39.708Z,10.98
2022-10-31T07:12:11.043Z,10.95
2022-10-31T07:14:44.300Z,10.99
2022-10-31T07:17:12.441Z,10.96
2022-10-31T07:19:43.699Z,10.98
2022-10-31T07:22:13.496Z,11.03
2022-10-31T07:24:44.341Z,11.02
2022-10-31T07:27:42.834Z,11.07
2022-10-31T07:30:14.916Z,11.12
2022-10-31T07:32:45.309Z,11.12
2022-10-31T07:35:17.407Z,11.10
2022-10-31T07:37:51.613Z,11.09
2022-10-31T07:40:21.652Z,11.19
2022-10-31T07:42:52.475Z,11.13
2022-10-31T07:45:39.112Z,11.09
2022-10-31T07:48:31.752Z,11.13
2022-10-31T07:51:24.737Z,11.17
2022-10-31T07:54:12.978Z,11.20
2022-10-31T07:56:41.015Z,11.16
2022-10-31T07:59:10.872Z,11.12
2022-10-31T08:01:38.861Z,11.22
2022-10-31T08:04:30.340Z,11.23
2022-10-31T08:07:16.877Z,11.40
2022-10-31T08:09:51.564Z,11.38
2022-10-31T08:12:26.345Z,11.37
2022-10-31T08:14:56.764Z,11.40
2022-10-31T08:17:24.955Z,11.31
2022-10-31T08:19:57.689Z,11.23
2022-10-31T08:22:42.771Z,11.17
2022-10-31T08:25:12.346Z,11.28
2022-10-31T08:27:40.864Z,11.31
2022-10-31T08:30:18.885Z,11.38
2022-10-31T08:33:03.778Z,11.50
2022-10-31T08:35:50.775Z,11.48
2022-10-31T08:38:37.501Z,11.45
2022-10-31T08:41:05.656Z,11.36
2022-10-31T08:43:34.456Z,11.53
2022-10-31T08:46:05.311Z,11.50
2022-10-31T08:48:34.007Z,11.58
2022-10-31T08:51:04.679Z,11.58
2022-10-31T08:53:33.680Z,11.54
2022-10-31T08:56:21.571Z,11.57
2022-10-31T08:58:49.967Z,11.63
2022-10-31T09:01:21.207Z,11.61
2022-10-31T09:03:49.521Z,11.58
2022-10-31T09:06:17.735Z,11.60
2022-10-31T09:08:49.334Z,11.58
2022-10-31T09:11:18.245Z,11.57
2022-10-31T09:14:14.880Z,11.67
2022-10-31T09:17:03.330Z,11.71
2022-10-31T09:19:51.377Z,11.77
2022-10-31T09:22:19.461Z,11.85
2022-10-31T09:24:49.056Z,11.88
2022-10-31T09:27:17.115Z,11.67
2022-10-31T09:29:48.387Z,11.68
2022-10-31T09:32:19.625Z,11.78
2022-10-31T09:34:48.600Z,11.75
2022-10-31T09:37:21.030Z,11.72
2022-10-31T09:39:49.343Z,11.71
2022-10-31T09:42:39.323Z,11.71
2022-10-31T09:45:20.558Z,11.74
2022-10-31T09:48:04.339Z,11.79
2022-10-31T09:50:40.910Z,11.91
2022-10-31T09:53:49.093Z,11.91
2022-10-31T09:56:23.336Z,11.83
2022-10-31T09:58:57.020Z,11.93
2022-10-31T10:01:36.975Z,12.06
2022-10-31T10:04:22.257Z,12.03
2022-10-31T10:07:01.455Z,11.98
2022-10-31T10:09:55.091Z,12.05
2022-10-31T10:12:53.351Z,11.99
2022-10-31T10:15:49.774Z,12.08
2022-10-31T10:18:31.153Z,12.08
2022-10-31T10:21:25.486Z,12.03
2022-10-31T10:24:06.208Z,11.96
2022-10-31T10:26:39.891Z,12.09
2022-10-31T10:29:25.261Z,12.06
2022-10-31T10:32:02.061Z,12.09
2022-10-31T10:34:33.764Z,12.18
2022-10-31T10:37:06.846Z,12.19
2022-10-31T10:39:40.716Z,12.20
2022-10-31T10:42:27.666Z,12.16
2022-10-31T10:45:13.165Z,12.06
2022-10-31T10:47:44.744Z,12.13
2022-10-31T10:50:19.721Z,12.16
2022-10-31T10:53:00.552Z,12.13
2022-10-31T10:55:42.261Z,12.01
2022-10-31T10:58:11.715Z,12.05
2022-10-31T11:00:43.878Z,12.20
2022-10-31T11:03:12.437Z,12.32
2022-10-31T11:05:46.030Z,12.39
2022-10-31T11:08:27.452Z,12.48
2022-10-31T11:11:01.348Z,12.53
2022-10-31T11:13:35.955Z,12.48
2022-10-31T11:16:06.627Z,12.46
2022-10-31T11:18:38.899Z,12.41
2022-10-31T11:21:07.785Z,12.41
2022-10-31T11:23:37.194Z,12.43
2022-10-31T11:26:07.443Z,12.50
2022-10-31T11:28:36.523Z,12.46
2022-10-31T11:31:09.794Z,12.34
2022-10-31T11:33:40.738Z,12.41
2022-10-31T11:36:18.376Z,12.51
2022-10-31T11:38:48.303Z,12.57
2022-10-31T11:41:18.693Z,12.67
2022-10-31T11:43:53.876Z,12.63
2022-10-31T11:46:26.092Z,12.64
2022-10-31T11:48:56.950Z,12.71
2022-10-31T11:51:29.215Z,12.39
2022-10-31T11:54:03.051Z,12.54
2022-10-31T11:56:41.343Z,12.43
2022-10-31T11:59:20.614Z,12.51
2022-10-31T12:01:51.260Z,12.54
2022-10-31T12:04:19.880Z,12.64
2022-10-31T12:06:49.973Z,12.68
2022-10-31T12:09:24.560Z,12.71
2022-10-31T12:12:24.776Z,12.69
2022-10-31T12:15:02.013Z,12.64
2022-10-31T12:17:37.985Z,12.37
2022-10-31T12:20:18.524Z,12.25
2022-10-31T12:22:55.559Z,12.34
2022-10-31T12:25:41.528Z,12.29
2022-10-31T12:28:30.494Z,12.22
2022-10-31T12:31:11.523Z,12.30
2022-10-31T12:33:49.608Z,12.32
2022-10-31T12:36:30.932Z,12.41
2022-10-31T12:39:18.660Z,12.44
2022-10-31T12:41:53.701Z,12.56
2022-10-31T12:44:46.930Z,12.44
2022-10-31T12:47:31.234Z,12.34
2022-10-31T12:50:13.097Z,12.25
2022-10-31T12:52:52.278Z,12.37
2022-10-31T12:55:34.304Z,12.39
2022-10-31T12:58:11.219Z,12.36
2022-10-31T13:00:48.034Z,12.37
2022-10-31T13:03:27.400Z,12.47
2022-10-31T13:06:00.264Z,12.50
2022-10-31T13:08:44.772Z,12.53
2022-10-31T13:11:17.881Z,12.46
2022-10-31T13:13:55.158Z,12.47
2022-10-31T13:16:28.256Z,12.48
2022-10-31T13:19:08.000Z,12.54
2022-10-31T13:21:40.499Z,12.48
2022-10-31T13:24:15.260Z,12.54
2022-10-31T13:26:48.396Z,12.51
2022-10-31T13:29:24.803Z,12.56
2022-10-31T13:31:56.053Z,12.50
2022-10-31T13:34:31.103Z,12.34
2022-10-31T13:37:06.525Z,12.37
2022-10-31T13:39:59.294Z,12.40
2022-10-31T13:42:46.749Z,12.39
2022-10-31T13:45:19.868Z,12.46
2022-10-31T13:47:58.614Z,12.44
2022-10-31T13:50:29.650Z,12.41
2022-10-31T13:53:16.012Z,12.40
2022-10-31T13:55:44.857Z,12.37
2022-10-31T13:58:25.916Z,12.26
2022-10-31T14:01:16.139Z,12.25
2022-10-31T14:04:12.694Z,12.28
2022-10-31T14:06:46.437Z,12.28
2022-10-31T14:09:22.902Z,12.26
2022-10-31T14:11:52.388Z,12.29
2022-10-31T14:14:22.428Z,12.29
2022-10-31T14:16:57.396Z,12.32
2022-10-31T14:19:25.639Z,12.22
2022-10-31T14:21:56.486Z,12.26
2022-10-31T14:24:36.420Z,12.26
2022-10-31T14:27:21.742Z,12.16
2022-10-31T14:29:50.842Z,12.18
2022-10-31T14:32:24.898Z,12.19
2022-10-31T14:34:58.957Z,12.06
2022-10-31T14:37:37.011Z,12.02
2022-10-31T14:40:26.531Z,12.03
2022-10-31T14:43:08.396Z,12.15
2022-10-31T14:45:48.960Z,12.03
2022-10-31T14:48:40.592Z,12.06
2022-10-31T14:51:15.305Z,12.08
2022-10-31T14:53:49.615Z,11.93
2022-10-31T14:56:23.506Z,11.93
2022-10-31T14:58:52.233Z,11.91
2022-10-31T15:01:25.426Z,11.96
2022-10-31T15:04:22.581Z,11.91
2022-10-31T15:06:53.563Z,11.98
2022-10-31T15:09:26.280Z,11.95
2022-10-31T15:11:54.582Z,11.95
2022-10-31T15:14:26.222Z,11.86
2022-10-31T15:16:54.694Z,11.91
2022-10-31T15:19:29.569Z,11.88
2022-10-31T15:21:59.342Z,11.82
2022-10-31T15:24:34.345Z,11.86
2022-10-31T15:27:05.169Z,11.83
2022-10-31T15:29:33.828Z,11.81
2022-10-31T15:32:03.807Z,11.85
2022-10-31T15:34:39.548Z,11.81
2022-10-31T15:37:13.035Z,11.79
2022-10-31T15:39:41.683Z,11.78
2022-10-31T15:42:19.806Z,11.81
2022-10-31T15:44:51.869Z,11.78
2022-10-31T15:47:22.246Z,11.85
2022-10-31T15:49:53.981Z,11.79
2022-10-31T15:52:31.313Z,11.79
2022-10-31T15:55:06.031Z,11.79
2022-10-31T15:57:41.002Z,11.75
2022-10-31T16:00:24.884Z,11.77
2022-10-31T16:03:05.596Z,11.75
2022-10-31T16:05:39.795Z,11.81
2022-10-31T16:08:26.317Z,11.77
2022-10-31T16:10:55.422Z,11.72
2022-10-31T16:13:28.159Z,11.65
2022-10-31T16:16:28.956Z,11.63
2022-10-31T16:18:51.979Z,11.55
2022-10-31T16:21:28.625Z,11.50
2022-10-31T16:24:05.769Z,11.55
2022-10-31T16:26:36.626Z,11.45
2022-10-31T16:29:06.076Z,11.43
2022-10-31T16:31:40.593Z,11.45
2022-10-31T16:34:19.339Z,11.48
2022-10-31T16:36:52.529Z,11.48
2022-10-31T16:39:20.990Z,11.45
2022-10-31T16:41:53.059Z,11.47
2022-10-31T16:44:24.504Z,11.36
2022-10-31T16:47:11.254Z,11.30
2022-10-31T16:49:40.082Z,11.22
2022-10-31T16:52:11.228Z,11.15
2022-10-31T16:54:40.413Z,11.13
2022-10-31T16:57:11.485Z,11.12
2022-10-31T16:59:40.159Z,11.10
2022-10-31T17:02:17.072Z,11.10
2022-10-31T17:04:49.658Z,11.09
2022-10-31T17:07:24.673Z,11.09
2022-10-31T17:09:55.122Z,11.09
2022-10-31T17:12:30.577Z,11.12
2022-10-31T17:15:01.265Z,11.12
2022-10-31T17:17:31.496Z,11.12
2022-10-31T17:20:00.847Z,11.15
2022-10-31T17:22:31.410Z,11.12
2022-10-31T17:24:59.964Z,11.09
2022-10-31T17:27:28.234Z,11.09
2022-10-31T17:29:56.482Z,11.17
2022-10-31T17:32:24.686Z,11.23
2022-10-31T17:34:52.898Z,11.33
2022-10-31T17:37:20.987Z,11.31
2022-10-31T17:39:51.245Z,11.34
2022-10-31T17:42:20.565Z,11.40
2022-10-31T17:44:48.777Z,11.36
2022-10-31T17:47:16.918Z,11.40
2022-10-31T17:49:47.740Z,11.38
2022-10-31T17:52:16.131Z,11.34
2022-10-31T17:54:44.909Z,11.31
2022-10-31T17:57:19.547Z,11.28
2022-10-31T17:59:47.834Z,11.24
2022-10-31T18:02:16.205Z,11.26
2022-10-31T18:04:44.548Z,11.27
2022-10-31T18:07:12.737Z,11.23
2022-10-31T18:09:40.924Z,11.36
2022-10-31T18:12:09.406Z,11.36
2022-10-31T18:14:40.929Z,11.44
2022-10-31T18:17:11.430Z,11.44
2022-10-31T18:19:39.758Z,11.44
2022-10-31T18:22:08.691Z,11.31
2022-10-31T18:24:36.984Z,11.22
2022-10-31T18:27:06.088Z,11.19
2022-10-31T18:29:34.146Z,11.22
2022-10-31T18:32:09.036Z,11.26
2022-10-31T18:34:37.788Z,11.37
2022-10-31T18:37:06.315Z,11.34
2022-10-31T18:39:41.622Z,11.36
2022-10-31T18:42:09.907Z,11.33
2022-10-31T18:44:38.327Z,11.44
2022-10-31T18:47:08.537Z,11.41
2022-10-31T18:49:36.895Z,11.36
2022-10-31T18:52:06.029Z,11.28
2022-10-31T18:54:35.215Z,11.31
2022-10-31T18:57:04.613Z,11.34
2022-10-31T18:59:34.025Z,11.30
2022-10-31T19:02:04.029Z,11.28
2022-10-31T19:04:37.820Z,11.24
2022-10-31T19:07:08.020Z,11.20
2022-10-31T19:09:39.694Z,11.22
2022-10-31T19:12:09.709Z,11.22
2022-10-31T19:14:39.738Z,11.22
2022-10-31T19:17:09.693Z,11.17
2022-10-31T19:19:41.609Z,11.03
2022-10-31T19:22:12.716Z,10.96
2022-10-31T19:24:43.083Z,10.95
2022-10-31T19:27:13.534Z,10.92
2022-10-31T19:29:43.617Z,10.95
2022-10-31T19:32:13.722Z,10.91
2022-10-31T19:34:48.979Z,10.91
2022-10-31T19:37:19.595Z,10.89
2022-10-31T19:39:50.007Z,10.89
2022-10-31T19:42:20.093Z,10.89
2022-10-31T19:44:50.162Z,10.88
2022-10-31T19:47:20.719Z,10.89
2022-10-31T19:49:53.334Z,10.99
2022-10-31T19:52:23.554Z,10.96
2022-10-31T19:54:54.185Z,10.95
2022-10-31T19:57:48.342Z,10.99
2022-10-31T20:00:14.360Z,11.07
2022-10-31T20:02:44.257Z,11.13
2022-10-31T20:05:16.874Z,11.12
2022-10-31T20:07:46.580Z,11.10
2022-10-31T20:10:16.617Z,11.10
2022-10-31T20:12:46.932Z,11.05
2022-10-31T20:15:16.615Z,11.12
2022-10-31T20:17:46.370Z,11.00
2022-10-31T20:20:17.850Z,11.06
2022-10-31T20:22:50.121Z,11.07
2022-10-31T20:25:19.965Z,11.10
2022-10-31T20:27:49.146Z,11.15
2022-10-31T20:30:18.045Z,11.05
2022-10-31T20:32:50.013Z,11.02
2022-10-31T20:35:20.216Z,10.93
2022-10-31T20:37:49.495Z,10.88
2022-10-31T20:40:18.029Z,10.86
2022-10-31T20:42:46.731Z,10.85
2022-10-31T20:45:15.237Z,10.85
2022-10-31T20:47:43.698Z,10.85
2022-10-31T20:50:12.110Z,10.82
2022-10-31T20:52:42.290Z,10.79
2022-10-31T20:55:12.838Z,10.79
2022-10-31T20:57:41.123Z,10.76
2022-10-31T21:00:11.490Z,10.73
2022-10-31T21:02:47.746Z,10.72
2022-10-31T21:05:18.130Z,10.73
2022-10-31T21:07:48.395Z,10.72
2022-10-31T21:10:16.816Z,10.76
2022-10-31T21:12:46.024Z,10.86
2022-10-31T21:15:15.644Z,10.93
2022-10-31T21:17:44.092Z,10.92
2022-10-31T21:20:12.628Z,10.96
2022-10-31T21:22:41.206Z,10.96
2022-10-31T21:25:11.595Z,10.89
2022-10-31T21:27:41.039Z,10.93
2022-10-31T21:30:10.268Z,10.92
2022-10-31T21:32:42.503Z,10.96
2022-10-31T21:35:10.873Z,10.98
2022-10-31T21:37:39.159Z,10.93
2022-10-31T21:40:10.454Z,10.83
2022-10-31T21:42:40.025Z,10.79
2022-10-31T21:45:09.127Z,10.73
2022-10-31T21:47:37.355Z,10.65
2022-10-31T21:50:05.834Z,10.64
2022-10-31T21:52:34.110Z,10.62
2022-10-31T21:55:01.191Z,10.65
2022-10-31T21:57:29.337Z,10.61
2022-10-31T21:59:59.015Z,10.67
2022-10-31T22:02:27.215Z,10.75
2022-10-31T22:04:55.352Z,10.75
2022-10-31T22:07:23.466Z,10.78
2022-10-31T22:09:51.681Z,10.73
2022-10-31T22:12:19.933Z,10.76
2022-10-31T22:14:50.187Z,10.76
2022-10-31T22:17:20.416Z,10.78
2022-10-31T22:19:48.802Z,10.82
2022-10-31T22:22:20.829Z,10.76
2022-10-31T22:24:48.992Z,10.82
2022-10-31T22:27:17.034Z,10.75
2022-10-31T22:29:45.133Z,10.78
2022-10-31T22:32:13.336Z,10.78
2022-10-31T22:34:45.229Z,10.78
2022-10-31T22:37:17.330Z,10.72
2022-10-31T22:39:48.148Z,10.76
2022-10-31T22:42:16.309Z,10.71
2022-10-31T22:44:44.496Z,10.79
2022-10-31T22:47:12.664Z,10.82
2022-10-31T22:49:43.915Z,10.78
2022-10-31T22:52:12.027Z,10.82
2022-10-31T22:54:40.100Z,10.79
2022-10-31T22:57:10.167Z,10.78
2022-10-31T22:59:40.206Z,10.73
2022-10-31T23:02:08.750Z,10.76
2022-10-31T23:04:39.728Z,10.76
2022-10-31T23:07:12.393Z,10.80
2022-10-31T23:09:42.594Z,10.80
2022-10-31T23:12:28.328Z,10.79
2022-10-31T23:14:56.426Z,10.76
2022-10-31T23:17:25.500Z,10.83
2022-10-31T23:19:53.584Z,10.82
2022-10-31T23:22:23.289Z,10.80
2022-10-31T23:24:54.367Z,10.85
2022-10-31T23:27:23.352Z,10.82
2022-10-31T23:29:53.337Z,10.78
2022-10-31T23:32:24.874Z,10.80
2022-10-31T23:34:54.778Z,10.75
2022-10-31T23:37:27.066Z,10.79
2022-10-31T23:39:55.306Z,10.76
2022-10-31T23:42:24.102Z,10.75
2022-10-31T23:44:53.313Z,10.75
2022-10-31T23:47:22.280Z,10.75
2022-10-31T23:49:50.735Z,10.78
2022-10-31T23:52:19.008Z,10.78
2022-10-31T23:54:48.672Z,10.78
2022-10-31T23:57:41.253Z,10.75
